首页
METAR-TAF:

METAR-TAF

机场 :

Hohn, 德国

纬度: 54-19N, 经度: 009-32E, 海拔: 12米

当前天气观测

该预报发布于21分钟前的21:50 UTC
风速7节,风向西南
温度 2°C
湿度 93%
气压 1001 hPa
能见度10公里或以上
多云层高于700英尺

METAR: ETNH 272150Z 23007KT 9999 BKN007 02/01 Q1001 GRN

时间: 23:11 (22:11 UTC)

预报

该预报发布于4小时和51分钟前的17:20 UTC
预报有效从27日的 18点(UTC)到 28日的 06点(UTC)
风速6节,风向西转西南
能见度10公里或以上
少量云层高于1000英尺
多云层高于3000英尺
短暂存在
从 27日的 18点(UTC)到 28日的 06点(UTC)
风速10节,风向西转西南
能見度: 2000
多云层高于200英尺
多云层高于1000英尺, 塔状积云.
阵雪, 雨

TAF: ETNH 271720Z 2718/2806 24006KT 9999 NSW FEW010 BKN030 TEMPO 2718/2806 24010KT 2000 SHSNRA BKN002 BKN010TCU BY ETGL

超过4000个机场的气象观测和天气预报(METAR&TAF报告)。

可查询的气象台以黄色和红色小点在地图上表示。

将鼠标移到小点上方,可查看气象台名称。

然后点击查看天气观测和预报。

如需切换地图:点击带黑十字的绿色按钮放大地图;点击带横线的绿色按钮缩小地图;或者点击绿色箭头查看邻近地区的地图。


METAR-TAF: